Time;durP1;ratioP1;P1;durP2;ratioP2;P2;SDS_P1;SDS_P2;PMS_P1;PMS_P2;Temp;Humidity;BMP_temperature;BMP_pressure;BME280_temperature;BME280_humidity;BME280_pressure;Samples;Min_cycle;Max_cycle;Signal;HPM_P1;HPM_P2
2021/12/01 00:01:41;;;;;;;19.05;17.35;;;10.40;99.90;;;;;;4996026;28;20093;-80
2021/12/01 00:04:06;;;;;;;19.58;17.58;;;10.30;99.90;;;;;;4994435;28;20037;-80
2021/12/01 00:06:32;;;;;;;17.92;16.30;;;10.30;99.90;;;;;;4994541;28;20030;-80
2021/12/01 00:08:58;;;;;;;16.55;15.15;;;10.30;99.90;;;;;;4995355;28;20029;-80
2021/12/01 00:11:24;;;;;;;15.60;14.05;;;10.40;99.90;;;;;;4995553;28;20396;-81
2021/12/01 00:13:49;;;;;;;14.25;12.85;;;10.40;99.90;;;;;;4995084;28;20026;-80
2021/12/01 00:16:15;;;;;;;12.70;11.50;;;10.40;99.90;;;;;;4994483;28;20497;-79
2021/12/01 00:18:41;;;;;;;11.45;10.50;;;10.40;99.90;;;;;;4994222;28;20394;-80
2021/12/01 00:21:07;;;;;;;11.18;10.18;;;10.40;99.90;;;;;;4994944;28;20033;-79
2021/12/01 00:23:33;;;;;;;10.13;9.23;;;10.40;99.90;;;;;;4995524;28;20022;-79
2021/12/01 00:25:58;;;;;;;8.82;8.02;;;10.40;99.90;;;;;;4994388;28;20022;-81
2021/12/01 00:28:25;;;;;;;8.15;7.53;;;10.40;99.90;;;;;;4995973;28;20406;-82
2021/12/01 00:30:52;;;;;;;9.02;7.85;;;10.50;99.90;;;;;;4994943;28;20027;-81
2021/12/01 00:33:22;;;;;;;8.55;7.78;;;10.40;99.90;;;;;;4993740;28;20027;-80
2021/12/01 00:35:53;;;;;;;7.25;6.65;;;10.50;99.90;;;;;;4994678;28;20600;-82
2021/12/01 00:38:20;;;;;;;6.70;6.15;;;10.40;99.90;;;;;;4994562;28;20034;-80
2021/12/01 00:40:45;;;;;;;7.10;6.50;;;10.50;99.90;;;;;;4994901;28;20073;-79
2021/12/01 00:43:16;;;;;;;5.53;5.07;;;10.50;99.90;;;;;;4994560;28;20470;-81
2021/12/01 00:45:51;;;;;;;5.17;4.77;;;10.50;99.90;;;;;;4994441;28;20014;-80
2021/12/01 00:48:18;;;;;;;4.85;4.50;;;10.50;99.90;;;;;;4993858;28;20041;-81
2021/12/01 00:50:44;;;;;;;4.47;4.18;;;10.50;99.90;;;;;;4995222;28;20022;-81
2021/12/01 00:53:11;;;;;;;4.25;3.95;;;10.50;99.90;;;;;;4993657;28;20399;-81
2021/12/01 00:55:37;;;;;;;4.05;3.75;;;10.50;99.90;;;;;;5003334;28;20037;-80
2021/12/01 00:58:04;;;;;;;3.40;3.20;;;10.50;99.90;;;;;;4993965;28;20066;-80
2021/12/01 01:00:31;;;;;;;3.67;3.47;;;10.50;99.90;;;;;;4993271;28;20022;-80
2021/12/01 01:02:58;;;;;;;3.72;3.42;;;10.50;99.90;;;;;;4994310;28;20026;-80
2021/12/01 01:05:25;;;;;;;3.75;3.35;;;10.50;99.90;;;;;;4993722;28;20046;-80
2021/12/01 01:07:51;;;;;;;3.92;3.42;;;10.60;99.90;;;;;;4993551;28;20033;-81
2021/12/01 01:18:34;;;;;;;3.40;3.10;;;10.50;99.90;;;;;;5014392;28;20107;-81
2021/12/01 01:21:01;;;;;;;4.25;3.85;;;10.50;99.90;;;;;;5014371;28;20049;-80
2021/12/01 01:23:29;;;;;;;3.53;3.33;;;10.50;99.90;;;;;;5013703;28;20458;-79
2021/12/01 01:25:56;;;;;;;3.95;3.60;;;10.50;99.90;;;;;;5013293;28;20025;-79
2021/12/01 01:28:22;;;;;;;4.00;3.70;;;10.50;99.90;;;;;;5012753;28;20076;-79
2021/12/01 01:30:47;;;;;;;5.03;4.18;;;10.50;99.90;;;;;;5012970;28;20030;-79
2021/12/01 01:33:13;;;;;;;4.13;3.83;;;10.50;99.90;;;;;;5013132;28;20022;-79
2021/12/01 01:35:40;;;;;;;4.25;3.85;;;10.50;99.90;;;;;;5012230;28;20520;-79
2021/12/01 01:38:05;;;;;;;3.92;3.63;;;10.50;99.90;;;;;;5014483;28;20076;-79
2021/12/01 01:40:31;;;;;;;5.28;3.63;;;10.50;99.90;;;;;;5011999;28;20065;-79
2021/12/01 01:42:56;;;;;;;4.90;3.60;;;10.50;99.90;;;;;;5012403;28;20018;-79
2021/12/01 01:45:22;;;;;;;5.07;3.45;;;10.50;99.90;;;;;;5012526;28;20026;-78
2021/12/01 01:48:04;;;;;;;3.47;3.17;;;10.50;99.90;;;;;;5012764;28;20496;-79
2021/12/01 01:50:37;;;;;;;;;;;10.50;99.90;;;;;;5012767;28;20029;-79
2021/12/01 01:53:10;;;;;;;3.45;3.15;;;10.50;99.90;;;;;;5012458;28;20020;-79
2021/12/01 01:55:40;;;;;;;3.42;3.13;;;10.50;99.90;;;;;;5012122;28;20052;-80
2021/12/01 01:58:07;;;;;;;2.97;2.78;;;10.50;99.90;;;;;;5012872;28;20041;-79
2021/12/01 02:00:39;;;;;;;3.90;3.30;;;10.50;99.90;;;;;;5011923;28;20462;-80
2021/12/01 02:03:04;;;;;;;;;;;10.50;99.90;;;;;;5014388;28;20022;-79
2021/12/01 02:05:30;;;;;;;3.17;2.70;;;10.50;99.90;;;;;;5011576;28;19912;-79
2021/12/01 02:07:57;;;;;;;3.15;2.72;;;10.50;99.90;;;;;;5012722;28;20033;-80
2021/12/01 02:10:22;;;;;;;2.65;2.45;;;10.50;99.90;;;;;;5011528;28;20022;-79
2021/12/01 02:12:48;;;;;;;2.40;2.28;;;10.40;99.90;;;;;;5012350;28;20029;-79
2021/12/01 02:15:14;;;;;;;2.70;2.50;;;10.50;99.90;;;;;;5013128;28;20018;-79
2021/12/01 02:17:40;;;;;;;2.85;2.58;;;10.50;99.90;;;;;;5011745;28;20029;-79
2021/12/01 02:20:26;;;;;;;3.53;2.75;;;10.50;99.90;;;;;;5012235;28;20055;-80
2021/12/01 02:22:51;;;;;;;2.95;2.75;;;10.50;99.90;;;;;;5012925;28;20030;-81
2021/12/01 02:25:17;;;;;;;2.85;2.65;;;10.40;99.90;;;;;;5012497;28;20461;-79
2021/12/01 02:27:42;;;;;;;3.60;3.33;;;10.40;99.90;;;;;;5013483;28;20351;-80
2021/12/01 02:30:09;;;;;;;3.05;2.85;;;10.40;99.90;;;;;;5011637;28;20033;-80
2021/12/01 02:32:34;;;;;;;3.25;2.97;;;10.40;99.90;;;;;;5011095;28;20088;-82
2021/12/01 02:35:00;;;;;;;4.20;3.15;;;10.40;99.90;;;;;;5011967;28;20057;-80
2021/12/01 02:37:26;;;;;;;2.78;2.58;;;10.40;99.90;;;;;;5011567;28;20390;-80
2021/12/01 02:39:52;;;;;;;2.95;2.60;;;10.40;99.90;;;;;;5011359;28;20034;-80
2021/12/01 02:42:19;;;;;;;2.50;2.30;;;10.30;99.90;;;;;;5011837;28;20086;-81
2021/12/01 02:44:46;;;;;;;3.05;2.85;;;10.30;99.90;;;;;;5012870;28;20117;-79
2021/12/01 02:47:12;;;;;;;2.55;2.30;;;10.30;99.90;;;;;;5011282;28;20022;-78
2021/12/01 02:49:38;;;;;;;3.67;2.30;;;10.30;99.90;;;;;;5011271;28;20022;-79
2021/12/01 02:52:04;;;;;;;2.25;2.15;;;10.30;99.90;;;;;;5012874;28;20441;-79
2021/12/01 02:54:30;;;;;;;2.55;2.45;;;10.30;99.90;;;;;;5010268;28;20470;-79
2021/12/01 02:56:56;;;;;;;3.83;2.05;;;10.30;99.90;;;;;;5011533;28;20040;-78
2021/12/01 02:59:23;;;;;;;2.45;2.25;;;10.20;99.90;;;;;;5012675;28;20045;-79
2021/12/01 03:01:49;;;;;;;2.40;2.20;;;10.20;99.90;;;;;;5010603;28;20136;-80
2021/12/01 03:04:35;;;;;;;2.20;2.10;;;10.10;99.90;;;;;;5109511;27;20399;-77
2021/12/01 03:07:02;;;;;;;1.85;1.60;;;10.10;99.90;;;;;;5109413;28;20028;-77
2021/12/01 03:09:28;;;;;;;2.08;1.98;;;10.10;99.90;;;;;;5107743;28;20499;-78
2021/12/01 03:11:54;;;;;;;2.08;1.88;;;10.00;99.90;;;;;;5108931;28;20020;-76
2021/12/01 03:14:20;;;;;;;2.85;2.25;;;10.00;99.90;;;;;;5107684;28;20463;-78
2021/12/01 03:16:50;;;;;;;2.22;2.10;;;10.00;99.90;;;;;;5108695;28;20016;-78
2021/12/01 03:19:16;;;;;;;1.92;1.83;;;10.00;99.90;;;;;;5109463;28;20024;-82
2021/12/01 03:21:43;;;;;;;2.03;1.90;;;10.00;99.90;;;;;;5108961;28;20020;-80
2021/12/01 03:24:11;;;;;;;3.90;1.80;;;10.00;99.90;;;;;;5108244;28;20032;-79
2021/12/01 03:26:37;;;;;;;1.88;1.70;;;9.90;99.90;;;;;;5121116;27;20030;-79
2021/12/01 03:29:05;;;;;;;1.70;1.60;;;9.90;99.90;;;;;;5127928;27;20479;-78
2021/12/01 03:31:31;;;;;;;1.52;1.42;;;9.90;99.90;;;;;;5126538;28;20034;-78
2021/12/01 03:33:57;;;;;;;1.88;1.77;;;9.90;99.90;;;;;;5127469;27;20011;-77
2021/12/01 03:36:23;;;;;;;1.70;1.60;;;9.90;99.90;;;;;;5126668;27;20023;-78
2021/12/01 03:38:48;;;;;;;2.28;1.90;;;9.90;99.90;;;;;;5115757;27;20062;-78
2021/12/01 03:41:14;;;;;;;3.50;2.15;;;9.90;99.90;;;;;;5108237;28;20034;-78
2021/12/01 03:43:40;;;;;;;2.15;1.70;;;9.90;99.90;;;;;;5108525;28;20183;-79
2021/12/01 03:46:06;;;;;;;1.73;1.63;;;9.80;99.90;;;;;;5108085;28;20105;-79
2021/12/01 03:48:31;;;;;;;1.90;1.80;;;9.80;99.90;;;;;;5107323;28;20028;-79
2021/12/01 03:50:57;;;;;;;1.70;1.60;;;9.80;99.90;;;;;;5107226;28;20073;-79
2021/12/01 03:53:24;;;;;;;1.73;1.63;;;9.80;99.90;;;;;;5108620;28;20023;-79
2021/12/01 03:55:50;;;;;;;2.83;1.70;;;9.80;99.90;;;;;;5107663;28;20467;-78
2021/12/01 03:58:16;;;;;;;1.73;1.55;;;9.80;99.90;;;;;;5106634;28;20020;-79
2021/12/01 04:00:42;;;;;;;2.75;2.05;;;9.80;99.90;;;;;;5108150;28;20027;-79
2021/12/01 04:03:08;;;;;;;1.70;1.60;;;9.80;99.90;;;;;;5107929;28;20048;-79
2021/12/01 04:05:34;;;;;;;1.70;1.60;;;9.80;99.90;;;;;;5108402;28;20027;-79
2021/12/01 04:08:01;;;;;;;1.75;1.65;;;9.80;99.90;;;;;;5107948;28;20364;-79
2021/12/01 04:10:28;;;;;;;2.00;1.90;;;9.80;99.90;;;;;;5106237;28;20058;-78
2021/12/01 04:12:54;;;;;;;2.00;1.67;;;9.80;99.90;;;;;;5107098;28;20487;-78
2021/12/01 04:15:19;;;;;;;1.63;1.52;;;9.70;99.90;;;;;;5097916;28;20020;-79
2021/12/01 04:17:45;;;;;;;2.13;1.85;;;9.70;99.90;;;;;;5094538;28;20024;-78
2021/12/01 04:20:13;;;;;;;6.35;2.30;;;9.70;99.90;;;;;;5095280;28;20028;-79
2021/12/01 04:22:39;;;;;;;1.77;1.67;;;9.70;99.90;;;;;;5093396;28;20032;-79
2021/12/01 04:25:06;;;;;;;2.08;1.92;;;9.70;99.90;;;;;;5093213;28;20065;-78
2021/12/01 04:27:32;;;;;;;1.83;1.73;;;9.70;99.90;;;;;;5093762;28;20039;-78
2021/12/01 04:29:58;;;;;;;2.40;2.20;;;9.70;99.90;;;;;;5094899;28;20024;-79
2021/12/01 04:32:23;;;;;;;4.72;2.45;;;9.60;99.90;;;;;;5092827;28;20119;-81
2021/12/01 04:34:49;;;;;;;1.98;1.88;;;9.60;99.90;;;;;;5093442;28;20048;-80
2021/12/01 04:37:15;;;;;;;2.47;2.05;;;9.60;99.90;;;;;;5093176;28;20486;-79
2021/12/01 04:39:41;;;;;;;2.17;2.00;;;9.60;99.90;;;;;;5092471;28;20059;-79
2021/12/01 04:42:07;;;;;;;3.15;2.33;;;9.60;99.90;;;;;;5093743;28;20429;-80
2021/12/01 04:44:36;;;;;;;3.50;2.10;;;9.60;99.90;;;;;;5093098;28;20047;-81
2021/12/01 04:47:03;;;;;;;2.45;2.25;;;9.60;99.90;;;;;;5092243;28;20028;-78
2021/12/01 04:49:31;;;;;;;2.22;2.13;;;9.60;99.90;;;;;;5094071;28;20498;-78
2021/12/01 04:51:59;;;;;;;2.42;2.00;;;9.50;99.90;;;;;;5093116;28;20020;-77
2021/12/01 04:54:26;;;;;;;2.72;2.53;;;9.50;99.90;;;;;;5091946;28;20030;-77
2021/12/01 04:56:53;;;;;;;3.65;2.45;;;9.50;99.90;;;;;;5093006;28;20476;-78
2021/12/01 04:59:20;;;;;;;2.47;2.28;;;9.50;99.90;;;;;;5092157;28;20058;-79
2021/12/01 05:01:47;;;;;;;3.22;2.38;;;9.50;99.90;;;;;;5094356;28;20020;-78
2021/12/01 05:04:13;;;;;;;2.67;2.45;;;9.50;99.90;;;;;;5092427;28;20101;-79
2021/12/01 05:06:39;;;;;;;3.00;2.50;;;9.50;99.90;;;;;;5093157;28;20032;-79
2021/12/01 05:09:06;;;;;;;2.80;2.60;;;9.50;99.90;;;;;;5092708;28;20024;-79
2021/12/01 05:11:32;;;;;;;2.55;2.40;;;9.40;99.90;;;;;;5093454;28;20495;-79
2021/12/01 05:13:57;;;;;;;3.35;3.05;;;9.40;99.90;;;;;;5093042;28;20024;-78
2021/12/01 05:16:23;;;;;;;3.13;2.83;;;9.40;99.90;;;;;;5092747;28;20506;-79
2021/12/01 05:18:49;;;;;;;2.63;2.42;;;9.40;99.90;;;;;;5092649;28;20111;-80
2021/12/01 05:21:15;;;;;;;4.22;3.30;;;9.40;99.90;;;;;;5092856;28;20059;-78
2021/12/01 05:23:41;;;;;;;3.35;2.65;;;9.40;99.90;;;;;;5093603;28;20036;-79
2021/12/01 05:26:07;;;;;;;3.13;2.80;;;9.40;99.90;;;;;;5091419;28;20024;-79
2021/12/01 05:28:33;;;;;;;4.30;2.90;;;9.30;99.90;;;;;;5091678;28;20024;-79
2021/12/01 05:30:58;;;;;;;2.97;2.78;;;9.30;99.90;;;;;;5092258;28;20024;-79
2021/12/01 05:33:24;;;;;;;2.97;2.67;;;9.30;99.90;;;;;;5092647;28;20020;-79
2021/12/01 05:35:50;;;;;;;3.45;2.47;;;9.30;99.90;;;;;;5093088;28;20024;-79
2021/12/01 05:38:16;;;;;;;3.50;2.45;;;9.30;99.90;;;;;;5092091;28;20020;-78
2021/12/01 05:40:42;;;;;;;2.10;2.00;;;9.20;99.90;;;;;;5091800;28;20078;-87
2021/12/01 05:43:08;;;;;;;2.60;2.40;;;9.30;99.90;;;;;;5091770;28;20046;-83
2021/12/01 05:45:34;;;;;;;3.88;2.38;;;9.20;99.90;;;;;;5091890;28;20463;-84
2021/12/01 05:48:00;;;;;;;2.47;2.30;;;9.20;99.90;;;;;;5093241;28;20027;-81
2021/12/01 05:50:26;;;;;;;2.70;2.50;;;9.20;99.90;;;;;;5091377;28;20016;-81
2021/12/01 05:52:51;;;;;;;5.05;2.30;;;9.20;99.90;;;;;;5092208;28;20023;-83
2021/12/01 05:55:17;;;;;;;2.25;2.00;;;9.20;99.90;;;;;;5091313;28;20113;-83
2021/12/01 05:57:43;;;;;;;2.05;1.95;;;9.20;99.90;;;;;;5091414;28;20016;-80
2021/12/01 06:00:12;;;;;;;2.20;2.00;;;9.20;99.90;;;;;;5092055;28;20106;-81
2021/12/01 06:02:38;;;;;;;2.10;1.90;;;9.10;99.90;;;;;;5090780;28;20027;-85
2021/12/01 06:05:05;;;;;;;2.03;1.90;;;9.20;99.90;;;;;;5092317;28;20028;-84
2021/12/01 06:07:31;;;;;;;2.72;1.80;;;9.10;99.90;;;;;;5092070;28;20016;-90
2021/12/01 06:10:01;;;;;;;2.22;2.03;;;9.20;99.90;;;;;;5092091;28;20087;-81
2021/12/01 06:12:27;;;;;;;1.98;1.88;;;9.10;99.90;;;;;;5091892;28;20054;-90
2021/12/01 06:14:53;;;;;;;2.47;1.67;;;9.10;99.90;;;;;;5092604;28;20419;-86
2021/12/01 06:17:19;;;;;;;1.90;1.80;;;9.20;99.90;;;;;;5091323;28;20077;-85
2021/12/01 06:19:44;;;;;;;2.10;2.00;;;9.10;99.90;;;;;;5091652;28;20028;-86
2021/12/01 06:22:10;;;;;;;2.00;1.80;;;9.10;99.90;;;;;;5091691;28;20032;-86
2021/12/01 06:24:36;;;;;;;1.70;1.60;;;9.10;99.90;;;;;;5090374;28;20016;-84
2021/12/01 06:27:02;;;;;;;1.58;1.48;;;9.10;99.90;;;;;;5091903;28;20377;-82
2021/12/01 06:29:28;;;;;;;1.50;1.40;;;9.10;99.90;;;;;;5091530;28;20472;-87
2021/12/01 06:31:53;;;;;;;1.90;1.70;;;9.00;99.90;;;;;;5092415;28;20076;-79
2021/12/01 06:34:19;;;;;;;1.50;1.40;;;9.00;99.90;;;;;;5091524;28;20027;-88
2021/12/01 06:36:44;;;;;;;1.63;1.38;;;9.00;99.90;;;;;;5091221;28;20395;-88
2021/12/01 06:39:10;;;;;;;1.90;1.40;;;9.00;99.90;;;;;;5090823;28;20356;-83
2021/12/01 06:41:36;;;;;;;1.95;1.33;;;9.00;99.90;;;;;;5091023;28;20020;-84
2021/12/01 06:44:02;;;;;;;1.50;1.38;;;9.00;99.90;;;;;;5091246;28;20071;-80
2021/12/01 06:46:28;;;;;;;1.27;1.20;;;9.00;99.90;;;;;;5090714;28;20047;-85
2021/12/01 06:48:56;;;;;;;1.40;1.30;;;9.00;99.90;;;;;;5090029;28;20074;-85
2021/12/01 06:51:22;;;;;;;1.15;1.10;;;9.00;99.90;;;;;;5090566;28;20028;-83
2021/12/01 06:53:49;;;;;;;1.52;1.42;;;9.00;99.90;;;;;;5090819;28;20112;-85
2021/12/01 06:56:16;;;;;;;3.80;3.50;;;9.00;99.90;;;;;;5069807;28;20031;-78
2021/12/01 06:58:43;;;;;;;4.72;3.08;;;9.00;99.90;;;;;;5088251;28;20056;-78
2021/12/01 07:01:08;;;;;;;4.43;1.80;;;9.00;99.90;;;;;;5090647;28;20442;-78
2021/12/01 07:03:34;;;;;;;1.08;1.08;;;9.10;99.90;;;;;;5088602;28;20132;-79
2021/12/01 07:06:01;;;;;;;1.27;1.17;;;9.00;99.90;;;;;;5090284;28;20130;-80
2021/12/01 07:08:27;;;;;;;1.60;1.20;;;9.10;99.90;;;;;;5089435;28;20030;-79
2021/12/01 07:10:52;;;;;;;1.92;0.90;;;9.00;99.90;;;;;;5090101;28;20379;-80
2021/12/01 07:13:18;;;;;;;1.88;1.02;;;9.00;99.90;;;;;;5087152;28;20126;-79
2021/12/01 07:15:44;;;;;;;1.92;1.10;;;9.00;99.90;;;;;;5090521;28;20069;-82
2021/12/01 07:18:10;;;;;;;1.20;1.20;;;9.00;99.90;;;;;;5088393;28;20031;-80
2021/12/01 07:20:36;;;;;;;14.75;1.90;;;9.00;99.90;;;;;;5088542;28;20020;-79
2021/12/01 07:23:04;;;;;;;1.50;1.40;;;9.00;99.90;;;;;;5079964;28;20037;-80
2021/12/01 07:25:31;;;;;;;2.75;1.40;;;9.00;99.90;;;;;;5091337;28;20100;-81
2021/12/01 07:27:57;;;;;;;1.23;1.23;;;9.00;99.90;;;;;;5090761;28;20028;-82
2021/12/01 07:30:23;;;;;;;2.03;1.80;;;9.10;99.90;;;;;;5089771;28;20088;-80
2021/12/01 07:32:49;;;;;;;2.00;1.90;;;9.10;99.90;;;;;;5089254;28;20110;-82
2021/12/01 07:35:16;;;;;;;2.10;2.00;;;9.10;99.90;;;;;;5090495;28;20017;-83
2021/12/01 07:37:42;;;;;;;1.30;1.30;;;9.10;99.90;;;;;;5089284;28;20024;-82
2021/12/01 07:40:08;;;;;;;2.00;1.90;;;9.10;99.90;;;;;;5091776;28;20494;-89
2021/12/01 07:42:34;;;;;;;1.98;1.88;;;9.10;99.90;;;;;;5089222;28;20043;-89
2021/12/01 07:45:00;;;;;;;1.50;1.40;;;9.10;99.90;;;;;;5090785;28;20341;-84
2021/12/01 07:47:28;;;;;;;1.50;1.40;;;9.10;99.90;;;;;;5089685;28;20020;-86
2021/12/01 07:49:54;;;;;;;1.70;1.60;;;9.10;99.90;;;;;;5092096;28;20421;-83
2021/12/01 07:52:20;;;;;;;2.30;2.20;;;9.10;99.90;;;;;;5093173;28;20020;-85
2021/12/01 07:54:47;;;;;;;1.60;1.50;;;9.20;99.90;;;;;;5092973;28;20020;-90
2021/12/01 07:57:14;;;;;;;2.55;1.70;;;9.20;99.90;;;;;;5092303;28;20016;-85
2021/12/01 07:59:40;;;;;;;1.80;1.70;;;9.20;99.90;;;;;;5094539;28;20085;-83
2021/12/01 08:02:05;;;;;;;2.13;2.03;;;9.20;99.90;;;;;;5099242;28;20012;-87
2021/12/01 08:04:32;;;;;;;2.63;2.50;;;9.20;99.90;;;;;;5101700;28;20048;-80
2021/12/01 08:06:57;;;;;;;4.25;2.13;;;9.20;99.90;;;;;;5093013;28;20069;-82
2021/12/01 08:09:24;;;;;;;2.50;1.90;;;9.30;99.90;;;;;;5092719;28;20036;-80
2021/12/01 08:11:50;;;;;;;2.83;2.55;;;9.30;99.90;;;;;;5092387;28;20017;-79
2021/12/01 08:14:16;;;;;;;2.97;2.50;;;9.30;99.90;;;;;;5092598;28;20020;-78
2021/12/01 08:16:42;;;;;;;3.05;2.85;;;9.30;99.90;;;;;;5090239;28;20069;-80
2021/12/01 08:19:07;;;;;;;3.53;3.22;;;9.30;99.90;;;;;;5093098;28;20024;-80
2021/12/01 08:21:34;;;;;;;3.35;3.10;;;9.30;99.90;;;;;;5091729;28;20034;-78
2021/12/01 08:23:59;;;;;;;3.42;3.13;;;9.30;99.90;;;;;;5092875;28;20397;-78
2021/12/01 08:26:25;;;;;;;3.90;2.88;;;9.40;99.90;;;;;;5092795;28;20492;-76
2021/12/01 08:28:50;;;;;;;3.70;3.40;;;9.40;99.90;;;;;;5093684;28;20502;-80
2021/12/01 08:31:17;;;;;;;3.10;2.90;;;9.40;99.90;;;;;;5091936;28;20023;-79
2021/12/01 08:33:44;;;;;;;3.58;3.28;;;9.40;99.90;;;;;;5092572;28;20024;-81
2021/12/01 08:36:11;;;;;;;2.83;2.63;;;9.40;99.90;;;;;;5092505;28;20032;-86
2021/12/01 08:38:38;;;;;;;3.58;3.38;;;9.50;99.90;;;;;;5098013;28;20024;-88
2021/12/01 08:41:07;;;;;;;3.80;3.50;;;9.50;99.90;;;;;;5092148;28;20422;-77
2021/12/01 08:43:34;;;;;;;3.83;3.53;;;9.50;99.90;;;;;;5092235;28;20467;-82
2021/12/01 08:46:00;;;;;;;3.63;3.33;;;9.50;99.90;;;;;;5091930;28;20028;-80
2021/12/01 08:48:26;;;;;;;3.72;3.42;;;9.60;99.90;;;;;;5092738;28;20023;-78
2021/12/01 08:50:51;;;;;;;4.53;4.10;;;9.50;99.90;;;;;;5092555;28;20031;-80
2021/12/01 08:53:17;;;;;;;4.32;3.92;;;9.50;99.90;;;;;;5091543;28;20592;-78
2021/12/01 08:55:45;;;;;;;4.22;3.83;;;9.60;99.90;;;;;;5090914;28;20376;-82
2021/12/01 08:58:13;;;;;;;3.80;3.50;;;9.60;99.90;;;;;;5076706;28;20025;-82
2021/12/01 09:00:44;;;;;;;4.45;3.83;;;9.60;99.90;;;;;;5083203;28;20027;-82
2021/12/01 09:03:10;;;;;;;4.40;4.00;;;9.60;99.90;;;;;;5092244;28;20032;-80
2021/12/01 09:05:36;;;;;;;5.80;4.82;;;9.60;99.90;;;;;;5090865;28;20107;-80
2021/12/01 09:08:02;;;;;;;4.15;3.70;;;9.60;99.90;;;;;;5091942;28;20158;-81
2021/12/01 09:10:28;;;;;;;5.82;4.43;;;9.60;99.90;;;;;;5088262;28;20040;-79
2021/12/01 09:12:53;;;;;;;3.97;3.67;;;9.60;99.90;;;;;;5094198;28;20028;-86
2021/12/01 09:15:21;;;;;;;4.47;4.05;;;9.60;99.90;;;;;;5090762;28;20035;-91
2021/12/01 09:17:46;;;;;;;4.35;3.88;;;9.60;99.90;;;;;;5072683;28;20024;-85
2021/12/01 09:20:12;;;;;;;4.45;4.03;;;9.60;99.90;;;;;;5086287;28;20550;-82
2021/12/01 09:22:38;;;;;;;4.53;3.85;;;9.60;99.90;;;;;;5092957;28;20039;-78
2021/12/01 09:25:04;;;;;;;5.55;3.28;;;9.60;99.90;;;;;;5095304;28;20012;-79
2021/12/01 09:27:30;;;;;;;4.53;2.60;;;9.50;99.90;;;;;;5093463;28;20047;-84
2021/12/01 09:29:55;;;;;;;3.95;2.45;;;9.50;99.90;;;;;;5083430;28;20016;-82
2021/12/01 09:32:21;;;;;;;6.40;2.42;;;9.40;99.90;;;;;;5091558;28;20391;-76
2021/12/01 09:34:47;;;;;;;6.43;2.80;;;9.40;99.90;;;;;;5092690;28;20024;-89
2021/12/01 09:37:13;;;;;;;7.10;2.50;;;9.40;99.90;;;;;;5092655;28;20027;-79
2021/12/01 09:39:39;;;;;;;5.93;2.72;;;9.40;99.90;;;;;;5091700;28;20111;-80
2021/12/01 09:42:04;;;;;;;7.00;2.95;;;9.30;99.90;;;;;;5089762;28;20106;-84
2021/12/01 09:44:30;;;;;;;7.47;2.72;;;9.40;99.90;;;;;;5091176;28;20039;-77
2021/12/01 09:46:58;;;;;;;6.45;2.67;;;9.30;99.90;;;;;;5095123;28;20031;-77
2021/12/01 09:49:24;;;;;;;7.90;2.45;;;9.30;99.90;;;;;;5091568;28;20028;-87
2021/12/01 09:51:50;;;;;;;5.53;2.38;;;9.30;99.90;;;;;;5092921;28;20020;-86
2021/12/01 09:54:15;;;;;;;6.43;2.20;;;9.30;99.90;;;;;;5092510;28;20024;-93
2021/12/01 09:56:41;;;;;;;8.35;2.28;;;9.40;99.90;;;;;;5092497;28;20081;-87
2021/12/01 09:59:07;;;;;;;5.93;2.17;;;9.30;99.90;;;;;;5072317;28;20025;-92
2021/12/01 10:01:33;;;;;;;5.18;2.38;;;9.40;99.90;;;;;;5073332;28;20044;-84
2021/12/01 10:03:59;;;;;;;7.43;2.30;;;9.40;99.90;;;;;;5089018;28;20051;-76
2021/12/01 10:06:26;;;;;;;7.65;2.15;;;9.30;99.90;;;;;;5091182;28;20020;-81
2021/12/01 10:08:59;;;;;;;7.10;2.10;;;9.40;99.90;;;;;;5093021;28;20036;-90
2021/12/01 10:11:37;;;;;;;6.68;2.28;;;9.30;99.90;;;;;;5091592;28;20024;-79
2021/12/01 16:17:06;;;;;;;13.05;3.58;;;7.60;99.90;;;;;;5660965;23;20564;-76
2021/12/01 16:19:32;;;;;;;14.27;3.13;;;7.60;99.90;;;;;;5001277;28;20516;-84
2021/12/01 16:21:58;;;;;;;11.85;4.07;;;7.50;99.90;;;;;;5012180;28;20042;-80
2021/12/01 16:24:23;;;;;;;37.58;18.08;;;7.50;99.90;;;;;;5012371;28;20038;-79
2021/12/01 16:26:53;;;;;;;56.65;28.15;;;7.40;99.90;;;;;;5011081;28;20028;-85
2021/12/01 16:29:19;;;;;;;25.13;10.95;;;7.50;99.90;;;;;;5013086;28;20065;-78
2021/12/01 16:31:47;;;;;;;40.13;18.67;;;7.40;99.90;;;;;;4995853;28;20057;-80
2021/12/01 16:34:13;;;;;;;29.33;13.35;;;7.40;99.90;;;;;;5011947;28;20456;-77
2021/12/01 16:36:39;;;;;;;31.08;15.98;;;7.30;99.90;;;;;;5012751;28;20018;-82
2021/12/01 16:39:06;;;;;;;10.98;5.05;;;7.20;99.90;;;;;;5010790;28;20554;-77
2021/12/01 16:41:32;;;;;;;11.02;3.55;;;7.20;99.90;;;;;;5011804;28;20025;-78
2021/12/01 16:43:58;;;;;;;10.40;2.50;;;7.20;99.90;;;;;;5011722;28;20042;-80
2021/12/01 16:46:23;;;;;;;6.68;2.50;;;7.10;99.90;;;;;;5012658;28;20033;-78
2021/12/01 16:48:50;;;;;;;16.05;4.50;;;7.00;99.90;;;;;;5007986;28;20458;-76
2021/12/01 16:51:20;;;;;;;22.17;8.63;;;7.00;99.90;;;;;;5010820;28;20114;-77
2021/12/01 16:53:46;;;;;;;26.35;12.45;;;7.00;99.90;;;;;;5011145;28;20485;-80
2021/12/01 16:56:12;;;;;;;22.95;9.93;;;7.00;99.90;;;;;;5012938;28;20025;-78
2021/12/01 16:58:38;;;;;;;16.23;5.45;;;7.00;99.90;;;;;;5012165;28;20022;-76
2021/12/01 17:01:04;;;;;;;10.85;5.82;;;7.00;99.90;;;;;;5009865;28;20034;-76
2021/12/01 17:03:49;;;;;;;28.83;12.63;;;6.90;99.90;;;;;;5010824;28;20037;-76
2021/12/01 17:06:24;;;;;;;24.10;10.88;;;6.90;99.90;;;;;;5009238;28;20052;-80
2021/12/01 17:08:49;;;;;;;29.88;14.85;;;6.90;99.90;;;;;;5011553;28;20025;-78
2021/12/01 17:11:16;;;;;;;20.13;9.40;;;6.90;99.90;;;;;;5012411;28;20168;-80
2021/12/01 17:13:42;;;;;;;14.32;6.00;;;6.80;99.90;;;;;;5010595;28;20033;-81
2021/12/01 17:16:09;;;;;;;46.67;9.18;;;6.80;99.90;;;;;;5010609;28;20020;-78
2021/12/01 17:18:40;;;;;;;14.00;6.70;;;6.80;99.90;;;;;;5002965;28;20698;-80
2021/12/01 17:21:06;;;;;;;11.40;4.97;;;6.80;99.90;;;;;;5008727;28;20030;-81
2021/12/01 17:23:33;;;;;;;8.07;3.50;;;6.80;99.90;;;;;;4993938;28;20056;-81
2021/12/01 17:25:59;;;;;;;11.25;3.35;;;6.70;99.90;;;;;;5012977;28;20109;-79
2021/12/01 17:28:25;;;;;;;11.70;3.33;;;6.70;99.90;;;;;;5009519;28;20442;-78
2021/12/01 17:33:21;;;;;;;8.38;3.08;;;6.70;99.90;;;;;;5012747;28;20040;-79
2021/12/01 17:35:49;;;;;;;11.55;3.15;;;6.60;99.90;;;;;;5011189;28;20017;-81
2021/12/01 17:38:14;;;;;;;13.63;4.15;;;6.60;99.90;;;;;;5011599;28;20474;-79
2021/12/01 17:40:40;;;;;;;12.95;4.22;;;6.60;99.90;;;;;;5010571;28;20034;-80
2021/12/01 17:43:06;;;;;;;11.30;3.00;;;6.50;99.90;;;;;;5009430;28;20445;-79
2021/12/01 17:45:31;;;;;;;9.80;3.15;;;6.50;99.90;;;;;;5011271;28;20022;-82
2021/12/01 17:47:57;;;;;;;7.22;2.92;;;6.50;99.90;;;;;;5011759;28;20081;-81
2021/12/01 17:50:24;;;;;;;10.35;3.33;;;6.50;99.90;;;;;;5009914;28;20128;-80
2021/12/01 17:52:51;;;;;;;9.77;3.22;;;6.50;99.90;;;;;;5009810;28;20025;-77
2021/12/01 17:55:19;;;;;;;9.95;3.70;;;6.50;99.90;;;;;;4993884;28;20027;-77
2021/12/01 17:57:48;;;;;;;9.52;2.72;;;6.50;99.90;;;;;;5011090;28;20432;-90
2021/12/01 18:00:25;;;;;;;9.38;2.97;;;6.50;99.90;;;;;;4979280;28;20509;-80
2021/12/01 18:02:52;;;;;;;11.18;4.90;;;6.50;99.90;;;;;;5009563;28;20068;-81
2021/12/01 18:05:20;;;;;;;9.35;3.95;;;6.50;99.90;;;;;;5001088;28;20478;-85
2021/12/01 18:08:15;;;;;;;10.50;3.13;;;6.60;99.90;;;;;;5012067;28;20125;-89
2021/12/01 18:10:42;;;;;;;7.13;2.60;;;6.50;99.90;;;;;;5006598;28;20034;-82
2021/12/01 18:13:08;;;;;;;10.35;3.20;;;6.60;99.90;;;;;;5010395;28;20057;-85
2021/12/01 18:15:36;;;;;;;9.30;3.78;;;6.50;99.90;;;;;;5011323;28;20072;-85
2021/12/01 18:18:03;;;;;;;11.77;3.92;;;6.50;99.90;;;;;;5009089;28;20049;-83
2021/12/01 18:20:28;;;;;;;9.18;3.97;;;6.40;99.90;;;;;;5010613;28;20053;-82
2021/12/01 18:22:54;;;;;;;12.05;5.15;;;6.40;99.90;;;;;;5009652;28;20076;-78
2021/12/01 18:25:20;;;;;;;8.95;4.18;;;6.40;99.90;;;;;;5010149;28;20033;-84
2021/12/01 18:28:06;;;;;;;8.68;4.32;;;6.40;99.90;;;;;;5010225;28;20481;-92
2021/12/01 18:30:31;;;;;;;11.93;5.05;;;6.40;99.90;;;;;;5010690;28;20034;-83
2021/12/01 18:33:07;;;;;;;28.10;13.95;;;6.40;99.90;;;;;;5010147;28;20033;-88
2021/12/01 18:35:33;;;;;;;23.83;12.30;;;6.40;99.90;;;;;;5004505;28;20023;-76
2021/12/01 18:37:59;;;;;;;14.15;5.82;;;6.40;99.90;;;;;;5007117;28;20026;-78
2021/12/01 18:40:25;;;;;;;14.18;4.82;;;6.30;99.90;;;;;;5010607;28;20029;-76
2021/12/01 18:42:51;;;;;;;14.82;6.88;;;6.30;99.90;;;;;;5010739;28;20499;-78
2021/12/01 18:45:17;;;;;;;63.00;32.38;;;6.30;99.90;;;;;;5009926;28;20120;-84
2021/12/01 18:47:42;;;;;;;153.07;70.95;;;6.30;99.90;;;;;;5008520;28;20022;-80
2021/12/01 18:50:57;;;;;;;142.45;64.80;;;6.30;99.90;;;;;;5010274;28;20038;-88
2021/12/01 18:57:05;;;;;;;5.53;2.92;;;6.30;99.90;;;;;;5012160;28;20102;-76
2021/12/01 18:59:30;;;;;;;11.10;2.60;;;6.30;99.90;;;;;;5009577;28;20026;-82
2021/12/01 19:01:57;;;;;;;11.30;3.38;;;6.30;99.90;;;;;;4977685;28;20454;-82
2021/12/01 19:04:22;;;;;;;8.60;2.85;;;6.20;99.90;;;;;;5009073;28;20113;-81
2021/12/01 19:06:50;;;;;;;4.30;2.25;;;6.10;99.90;;;;;;5009058;28;20117;-81
2021/12/01 19:09:18;;;;;;;8.52;4.35;;;6.10;99.90;;;;;;5005318;28;20022;-75